Terminal Aerodrome Forecast
Issued by NWS

Home | Current Version | Previous Version | Graphics & Text | Print | Product List | Glossary On
Versions: 1 2 3 4 5 6 7 8 9 10 11 12 13 14 15 16
000
FTUS45 KGGW 251100
TAFSDY
TAF
KSDY 251132Z 2512/2612 01014KT P6SM VCSH BKN008
      TEMPO 2513/2516 SCT008 BKN017
     FM251800 01013KT P6SM BKN016 BKN030
     FM260000 36011KT P6SM SCT030
     FM260900 36007KT P6SM FEW035
      AMD LTD TO CLD VIS AND WIND=

USA.gov is the U.S. government's official web portal to all federal, state and local government web resources and services.